sensor_id;sensor_type;location;lat;lon;timestamp;pressure;altitude;pressure_sealevel;temperature;humidity
73860;BME280;62197;51.632;13.700;2022-07-22T00:00:14;100555.16;;;17.49;94.43
73860;BME280;62197;51.632;13.700;2022-07-22T00:02:40;100551.53;;;17.48;94.88
73860;BME280;62197;51.632;13.700;2022-07-22T00:05:06;100553.22;;;17.49;94.97
73860;BME280;62197;51.632;13.700;2022-07-22T00:07:31;100559.91;;;17.53;94.53
73860;BME280;62197;51.632;13.700;2022-07-22T00:09:57;100556.81;;;17.45;94.75
73860;BME280;62197;51.632;13.700;2022-07-22T00:12:22;100561.88;;;17.38;94.61
73860;BME280;62197;51.632;13.700;2022-07-22T00:14:47;100554.06;;;17.40;95.01
73860;BME280;62197;51.632;13.700;2022-07-22T00:17:13;100561.00;;;17.42;94.88
73860;BME280;62197;51.632;13.700;2022-07-22T00:19:38;100553.22;;;17.49;94.79
73860;BME280;62197;51.632;13.700;2022-07-22T00:22:04;100568.03;;;17.50;94.08
73860;BME280;62197;51.632;13.700;2022-07-22T00:24:29;100556.56;;;17.51;93.98
73860;BME280;62197;51.632;13.700;2022-07-22T00:26:55;100565.47;;;17.38;94.42
73860;BME280;62197;51.632;13.700;2022-07-22T00:29:20;100566.66;;;17.22;94.64
73860;BME280;62197;51.632;13.700;2022-07-22T00:31:46;100575.31;;;17.15;94.74
73860;BME280;62197;51.632;13.700;2022-07-22T00:34:11;100561.06;;;17.27;94.53
73860;BME280;62197;51.632;13.700;2022-07-22T00:36:36;100564.44;;;17.19;94.38
73860;BME280;62197;51.632;13.700;2022-07-22T00:39:02;100561.63;;;17.24;94.79
73860;BME280;62197;51.632;13.700;2022-07-22T00:41:27;100558.31;;;17.12;94.64
73860;BME280;62197;51.632;13.700;2022-07-22T00:43:57;100565.56;;;17.08;94.47
73860;BME280;62197;51.632;13.700;2022-07-22T00:46:24;100561.44;;;16.95;94.99
73860;BME280;62197;51.632;13.700;2022-07-22T00:48:49;100562.00;;;16.87;95.53
73860;BME280;62197;51.632;13.700;2022-07-22T00:51:17;100567.84;;;16.91;95.70
73860;BME280;62197;51.632;13.700;2022-07-22T00:53:42;100571.19;;;16.83;96.06
73860;BME280;62197;51.632;13.700;2022-07-22T00:56:09;100579.00;;;16.81;96.74
73860;BME280;62197;51.632;13.700;2022-07-22T00:58:35;100570.38;;;16.77;96.55
73860;BME280;62197;51.632;13.700;2022-07-22T01:01:00;100577.59;;;16.73;96.96
73860;BME280;62197;51.632;13.700;2022-07-22T01:03:25;100573.41;;;16.71;96.79
73860;BME280;62197;51.632;13.700;2022-07-22T01:05:51;100572.88;;;16.74;97.08
73860;BME280;62197;51.632;13.700;2022-07-22T01:08:16;100571.50;;;16.66;97.28
73860;BME280;62197;51.632;13.700;2022-07-22T01:10:42;100573.41;;;16.71;97.63
73860;BME280;62197;51.632;13.700;2022-07-22T01:13:07;100565.34;;;16.79;97.33
73860;BME280;62197;51.632;13.700;2022-07-22T01:15:33;100568.97;;;16.85;96.88
73860;BME280;62197;51.632;13.700;2022-07-22T01:17:59;100562.81;;;16.83;96.82
73860;BME280;62197;51.632;13.700;2022-07-22T01:20:24;100563.38;;;16.85;97.00
73860;BME280;62197;51.632;13.700;2022-07-22T01:22:51;100565.06;;;16.91;96.88
73860;BME280;62197;51.632;13.700;2022-07-22T01:25:16;100561.44;;;16.95;96.13
73860;BME280;62197;51.632;13.700;2022-07-22T01:27:41;100561.38;;;17.05;95.69
73860;BME280;62197;51.632;13.700;2022-07-22T01:30:07;100548.25;;;17.21;95.16
73860;BME280;62197;51.632;13.700;2022-07-22T01:32:33;100556.56;;;17.51;93.34
73860;BME280;62197;51.632;13.700;2022-07-22T01:34:58;100560.44;;;17.60;92.47
73860;BME280;62197;51.632;13.700;2022-07-22T01:37:24;100558.19;;;17.62;92.08
73860;BME280;62197;51.632;13.700;2022-07-22T01:39:49;100562.13;;;17.46;92.76
73860;BME280;62197;51.632;13.700;2022-07-22T01:42:15;100557.41;;;17.42;93.18
73860;BME280;62197;51.632;13.700;2022-07-22T01:44:40;100560.50;;;17.30;93.66
73860;BME280;62197;51.632;13.700;2022-07-22T01:47:07;100559.72;;;17.04;94.63
73860;BME280;62197;51.632;13.700;2022-07-22T01:49:32;100561.69;;;16.94;95.17
73860;BME280;62197;51.632;13.700;2022-07-22T01:52:00;100565.88;;;16.86;95.65
73860;BME280;62197;51.632;13.700;2022-07-22T01:54:25;100560.59;;;16.85;96.08
73860;BME280;62197;51.632;13.700;2022-07-22T01:56:50;100567.78;;;17.21;94.55
73860;BME280;62197;51.632;13.700;2022-07-22T01:59:16;100548.03;;;17.02;94.67
73860;BME280;62197;51.632;13.700;2022-07-22T02:01:41;100558.91;;;17.09;94.70
73860;BME280;62197;51.632;13.700;2022-07-22T02:04:06;100553.59;;;17.02;94.88
73860;BME280;62197;51.632;13.700;2022-07-22T02:06:32;100553.31;;;17.09;95.00
73860;BME280;62197;51.632;13.700;2022-07-22T02:08:57;100559.44;;;17.16;94.84
73860;BME280;62197;51.632;13.700;2022-07-22T02:11:22;100571.13;;;17.13;94.63
73860;BME280;62197;51.632;13.700;2022-07-22T02:13:48;100558.81;;;17.29;93.95
73860;BME280;62197;51.632;13.700;2022-07-22T02:16:13;100573.94;;;17.18;94.54
73860;BME280;62197;51.632;13.700;2022-07-22T02:18:38;100571.97;;;17.13;94.66
73860;BME280;62197;51.632;13.700;2022-07-22T02:21:04;100565.00;;;17.16;95.04
73860;BME280;62197;51.632;13.700;2022-07-22T02:23:29;100562.19;;;17.21;94.59
73860;BME280;62197;51.632;13.700;2022-07-22T02:25:55;100553.81;;;17.21;94.01
73860;BME280;62197;51.632;13.700;2022-07-22T02:28:20;100561.06;;;17.32;93.12
73860;BME280;62197;51.632;13.700;2022-07-22T02:30:45;100563.25;;;17.40;92.62
73860;BME280;62197;51.632;13.700;2022-07-22T02:33:11;100563.25;;;17.40;91.71
73860;BME280;62197;51.632;13.700;2022-07-22T02:35:37;100567.97;;;17.45;91.22
73860;BME280;62197;51.632;13.700;2022-07-22T02:38:02;100562.69;;;17.48;90.77
73860;BME280;62197;51.632;13.700;2022-07-22T02:40:28;100564.06;;;17.56;90.27
73860;BME280;62197;51.632;13.700;2022-07-22T02:42:53;100565.19;;;17.55;90.38
73860;BME280;62197;51.632;13.700;2022-07-22T02:45:19;100566.59;;;17.57;89.97
73860;BME280;62197;51.632;13.700;2022-07-22T02:47:48;100569.38;;;17.57;90.00
73860;BME280;62197;51.632;13.700;2022-07-22T02:50:14;100566.84;;;17.56;88.89
73860;BME280;62197;51.632;13.700;2022-07-22T02:52:39;100568.00;;;17.55;89.72
73860;BME280;62197;51.632;13.700;2022-07-22T02:55:05;100580.84;;;17.46;90.55
73860;BME280;62197;51.632;13.700;2022-07-22T02:57:31;100589.50;;;17.34;90.72
73860;BME280;62197;51.632;13.700;2022-07-22T02:59:56;100582.53;;;17.27;90.95
73860;BME280;62197;51.632;13.700;2022-07-22T03:02:21;100582.88;;;17.10;91.41
73860;BME280;62197;51.632;13.700;2022-07-22T03:04:47;100585.09;;;16.98;91.49
73860;BME280;62197;51.632;13.700;2022-07-22T03:07:12;100588.44;;;16.90;92.05
73860;BME280;62197;51.632;13.700;2022-07-22T03:09:37;100588.75;;;16.88;91.47
73860;BME280;62197;51.632;13.700;2022-07-22T03:12:03;100603.81;;;16.87;91.74
73860;BME280;62197;51.632;13.700;2022-07-22T03:14:28;100584.59;;;16.86;91.07
73860;BME280;62197;51.632;13.700;2022-07-22T03:16:53;100594.59;;;16.87;90.84
73860;BME280;62197;51.632;13.700;2022-07-22T03:19:19;100590.69;;;16.88;91.05
73860;BME280;62197;51.632;13.700;2022-07-22T03:21:44;100595.16;;;16.94;90.65
73860;BME280;62197;51.632;13.700;2022-07-22T03:24:10;100589.28;;;16.90;90.75
73860;BME280;62197;51.632;13.700;2022-07-22T03:26:35;100587.34;;;16.91;91.13
73860;BME280;62197;51.632;13.700;2022-07-22T03:29:00;100590.38;;;16.99;90.59
73860;BME280;62197;51.632;13.700;2022-07-22T03:31:26;100593.19;;;16.99;90.36
73860;BME280;62197;51.632;13.700;2022-07-22T03:33:52;100583.44;;;17.02;90.35
73860;BME280;62197;51.632;13.700;2022-07-22T03:36:17;100594.00;;;17.10;90.20
73860;BME280;62197;51.632;13.700;2022-07-22T03:38:42;100603.47;;;17.19;90.33
73860;BME280;62197;51.632;13.700;2022-07-22T03:41:08;100588.97;;;17.27;90.38
73860;BME280;62197;51.632;13.700;2022-07-22T03:43:33;100594.25;;;17.29;89.85
73860;BME280;62197;51.632;13.700;2022-07-22T03:45:58;100604.84;;;17.37;89.52
73860;BME280;62197;51.632;13.700;2022-07-22T03:48:25;100600.38;;;17.51;89.32
73860;BME280;62197;51.632;13.700;2022-07-22T03:50:51;100592.25;;;17.59;88.98
73860;BME280;62197;51.632;13.700;2022-07-22T03:53:16;100606.44;;;17.73;88.27
73860;BME280;62197;51.632;13.700;2022-07-22T03:55:42;100607.00;;;17.75;88.53
73860;BME280;62197;51.632;13.700;2022-07-22T03:58:07;100598.31;;;17.76;88.29
73860;BME280;62197;51.632;13.700;2022-07-22T04:00:33;100598.53;;;17.85;88.11
73860;BME280;62197;51.632;13.700;2022-07-22T04:02:58;100597.72;;;17.84;87.83
73860;BME280;62197;51.632;13.700;2022-07-22T04:05:24;100601.56;;;17.98;87.36
73860;BME280;62197;51.632;13.700;2022-07-22T04:07:49;100600.94;;;18.12;86.43
73860;BME280;62197;51.632;13.700;2022-07-22T04:10:14;100597.56;;;18.15;86.18
73860;BME280;62197;51.632;13.700;2022-07-22T04:12:40;100600.34;;;18.15;86.49
73860;BME280;62197;51.632;13.700;2022-07-22T04:15:07;100603.75;;;18.07;85.93
73860;BME280;62197;51.632;13.700;2022-07-22T04:17:33;100608.25;;;18.02;86.26
73860;BME280;62197;51.632;13.700;2022-07-22T04:19:58;100610.47;;;18.06;86.78
73860;BME280;62197;51.632;13.700;2022-07-22T04:22:26;100611.31;;;18.01;86.96
73860;BME280;62197;51.632;13.700;2022-07-22T04:24:51;100615.81;;;17.97;86.63
73860;BME280;62197;51.632;13.700;2022-07-22T04:27:16;100617.78;;;17.91;86.86
73860;BME280;62197;51.632;13.700;2022-07-22T04:29:42;100606.03;;;17.94;87.24
73860;BME280;62197;51.632;13.700;2022-07-22T04:32:07;100607.72;;;17.95;86.70
73860;BME280;62197;51.632;13.700;2022-07-22T04:34:32;100609.38;;;17.96;86.65
73860;BME280;62197;51.632;13.700;2022-07-22T04:36:58;100606.84;;;18.05;86.30
73860;BME280;62197;51.632;13.700;2022-07-22T04:39:23;100606.78;;;18.15;85.69
73860;BME280;62197;51.632;13.700;2022-07-22T04:41:49;100605.31;;;18.28;84.89
73860;BME280;62197;51.632;13.700;2022-07-22T04:44:14;100608.28;;;18.41;84.72
73860;BME280;62197;51.632;13.700;2022-07-22T04:46:39;100616.81;;;18.65;83.92
73860;BME280;62197;51.632;13.700;2022-07-22T04:49:05;100608.38;;;18.70;82.78
73860;BME280;62197;51.632;13.700;2022-07-22T04:51:30;100613.06;;;18.79;82.67
73860;BME280;62197;51.632;13.700;2022-07-22T04:53:56;100610.41;;;18.93;83.20
73860;BME280;62197;51.632;13.700;2022-07-22T04:56:21;100618.25;;;18.96;82.26
73860;BME280;62197;51.632;13.700;2022-07-22T04:58:46;100612.56;;;19.06;81.22
73860;BME280;62197;51.632;13.700;2022-07-22T05:01:12;100620.84;;;19.16;80.59
73860;BME280;62197;51.632;13.700;2022-07-22T05:03:38;100612.72;;;19.20;79.32
73860;BME280;62197;51.632;13.700;2022-07-22T05:06:04;100616.03;;;19.22;80.51
73860;BME280;62197;51.632;13.700;2022-07-22T05:08:29;100617.88;;;19.36;79.54
73860;BME280;62197;51.632;13.700;2022-07-22T05:10:55;100615.97;;;19.55;79.18
73860;BME280;62197;51.632;13.700;2022-07-22T05:13:20;100619.66;;;19.74;78.19
73860;BME280;62197;51.632;13.700;2022-07-22T05:15:45;100617.66;;;19.80;78.35
73860;BME280;62197;51.632;13.700;2022-07-22T05:18:11;100617.38;;;19.82;78.08
73860;BME280;62197;51.632;13.700;2022-07-22T05:20:36;100619.09;;;19.77;78.09
73860;BME280;62197;51.632;13.700;2022-07-22T05:23:02;100622.31;;;19.90;77.36
73860;BME280;62197;51.632;13.700;2022-07-22T05:25:27;100613.66;;;19.86;76.99
73860;BME280;62197;51.632;13.700;2022-07-22T05:27:54;100623.00;;;19.76;77.77
73860;BME280;62197;51.632;13.700;2022-07-22T05:30:20;100618.13;;;19.63;77.38
73860;BME280;62197;51.632;13.700;2022-07-22T05:32:45;100619.44;;;19.71;78.08
73860;BME280;62197;51.632;13.700;2022-07-22T05:35:10;100627.75;;;20.00;76.15
73860;BME280;62197;51.632;13.700;2022-07-22T05:37:36;100608.78;;;20.15;75.80
73860;BME280;62197;51.632;13.700;2022-07-22T05:40:01;100620.59;;;20.36;76.02
73860;BME280;62197;51.632;13.700;2022-07-22T05:42:27;100614.66;;;20.56;75.01
73860;BME280;62197;51.632;13.700;2022-07-22T05:44:52;100615.50;;;20.56;74.35
73860;BME280;62197;51.632;13.700;2022-07-22T05:47:17;100618.44;;;20.46;74.11
73860;BME280;62197;51.632;13.700;2022-07-22T05:49:43;100615.34;;;20.48;74.21
73860;BME280;62197;51.632;13.700;2022-07-22T05:52:08;100618.66;;;20.50;73.77
73860;BME280;62197;51.632;13.700;2022-07-22T05:54:33;100616.41;;;20.52;74.67
73860;BME280;62197;51.632;13.700;2022-07-22T05:56:59;100602.22;;;20.25;73.73
73860;BME280;62197;51.632;13.700;2022-07-22T05:59:24;100620.09;;;20.29;74.20
73860;BME280;62197;51.632;13.700;2022-07-22T06:01:49;100609.91;;;20.38;74.59
73860;BME280;62197;51.632;13.700;2022-07-22T06:04:15;100604.25;;;20.75;72.93
73860;BME280;62197;51.632;13.700;2022-07-22T06:06:41;100598.69;;;20.89;72.40
73860;BME280;62197;51.632;13.700;2022-07-22T06:09:06;100604.00;;;20.90;72.25
73860;BME280;62197;51.632;13.700;2022-07-22T06:11:31;100612.19;;;21.05;71.24
73860;BME280;62197;51.632;13.700;2022-07-22T06:13:57;100612.09;;;21.42;70.90
73860;BME280;62197;51.632;13.700;2022-07-22T06:16:22;100605.31;;;21.71;70.69
73860;BME280;62197;51.632;13.700;2022-07-22T06:18:47;100611.69;;;21.90;67.92
73860;BME280;62197;51.632;13.700;2022-07-22T06:21:13;100606.69;;;22.14;67.96
73860;BME280;62197;51.632;13.700;2022-07-22T06:23:38;100615.84;;;22.06;66.93
73860;BME280;62197;51.632;13.700;2022-07-22T06:26:03;100612.13;;;22.10;67.60
73860;BME280;62197;51.632;13.700;2022-07-22T06:28:29;100609.84;;;21.99;67.07
73860;BME280;62197;51.632;13.700;2022-07-22T06:30:54;100611.63;;;21.81;68.08
73860;BME280;62197;51.632;13.700;2022-07-22T06:33:20;100615.97;;;21.74;68.90
73860;BME280;62197;51.632;13.700;2022-07-22T06:35:45;100614.81;;;21.88;68.62
73860;BME280;62197;51.632;13.700;2022-07-22T06:38:10;100626.19;;;21.83;67.97
73860;BME280;62197;51.632;13.700;2022-07-22T06:40:36;100612.94;;;21.84;68.86
73860;BME280;62197;51.632;13.700;2022-07-22T06:43:02;100617.81;;;21.78;68.88
73860;BME280;62197;51.632;13.700;2022-07-22T06:45:28;100612.75;;;21.94;69.11
73860;BME280;62197;51.632;13.700;2022-07-22T06:47:53;100598.97;;;21.79;69.31
73860;BME280;62197;51.632;13.700;2022-07-22T06:50:19;100619.78;;;21.64;68.47
73860;BME280;62197;51.632;13.700;2022-07-22T06:52:44;100620.19;;;21.58;69.08
73860;BME280;62197;51.632;13.700;2022-07-22T06:55:10;100608.03;;;21.48;69.23
73860;BME280;62197;51.632;13.700;2022-07-22T06:57:35;100619.16;;;21.67;69.49
73860;BME280;62197;51.632;13.700;2022-07-22T07:00:02;100613.03;;;21.79;67.37
73860;BME280;62197;51.632;13.700;2022-07-22T07:02:28;100604.72;;;21.74;66.21
73860;BME280;62197;51.632;13.700;2022-07-22T07:04:53;100610.03;;;21.75;67.39
73860;BME280;62197;51.632;13.700;2022-07-22T07:07:19;100600.06;;;21.96;65.77
73860;BME280;62197;51.632;13.700;2022-07-22T07:09:44;100608.16;;;21.98;66.06
73860;BME280;62197;51.632;13.700;2022-07-22T07:12:09;100617.50;;;22.07;66.14
73860;BME280;62197;51.632;13.700;2022-07-22T07:14:35;100613.97;;;22.15;65.14
73860;BME280;62197;51.632;13.700;2022-07-22T07:17:00;100615.88;;;21.92;66.45
73860;BME280;62197;51.632;13.700;2022-07-22T07:19:25;100620.31;;;22.20;66.73
73860;BME280;62197;51.632;13.700;2022-07-22T07:21:51;100619.72;;;22.10;65.78
73860;BME280;62197;51.632;13.700;2022-07-22T07:24:16;100609.19;;;22.02;65.56
73860;BME280;62197;51.632;13.700;2022-07-22T07:26:41;100619.81;;;22.05;65.86
73860;BME280;62197;51.632;13.700;2022-07-22T07:29:07;100615.66;;;22.16;66.11
73860;BME280;62197;51.632;13.700;2022-07-22T07:31:32;100629.91;;;22.06;65.51
73860;BME280;62197;51.632;13.700;2022-07-22T07:33:58;100617.75;;;21.97;65.54
73860;BME280;62197;51.632;13.700;2022-07-22T07:36:23;100621.81;;;22.04;65.42
73860;BME280;62197;51.632;13.700;2022-07-22T07:38:49;100625.81;;;22.39;65.82
73860;BME280;62197;51.632;13.700;2022-07-22T07:41:14;100630.69;;;22.61;64.70
73860;BME280;62197;51.632;13.700;2022-07-22T07:43:39;100622.03;;;22.57;64.24
73860;BME280;62197;51.632;13.700;2022-07-22T07:46:05;100616.28;;;22.84;63.23
73860;BME280;62197;51.632;13.700;2022-07-22T07:48:30;100613.09;;;22.77;63.80
73860;BME280;62197;51.632;13.700;2022-07-22T07:50:56;100619.00;;;22.89;62.61
73860;BME280;62197;51.632;13.700;2022-07-22T07:53:21;100624.81;;;22.57;63.05
73860;BME280;62197;51.632;13.700;2022-07-22T07:55:46;100609.19;;;22.87;61.42
73860;BME280;62197;51.632;13.700;2022-07-22T07:58:12;100617.19;;;23.15;61.12
73860;BME280;62197;51.632;13.700;2022-07-22T08:00:37;100616.00;;;22.86;61.89
73860;BME280;62197;51.632;13.700;2022-07-22T08:03:04;100616.91;;;23.25;62.02
73860;BME280;62197;51.632;13.700;2022-07-22T08:05:30;100615.00;;;23.35;59.96
73860;BME280;62197;51.632;13.700;2022-07-22T08:07:55;100615.75;;;23.49;60.45
73860;BME280;62197;51.632;13.700;2022-07-22T08:10:21;100607.72;;;23.34;60.43
73860;BME280;62197;51.632;13.700;2022-07-22T08:12:47;100622.19;;;23.18;61.34
73860;BME280;62197;51.632;13.700;2022-07-22T08:15:13;100613.88;;;22.91;61.73
73860;BME280;62197;51.632;13.700;2022-07-22T08:17:38;100612.31;;;22.63;62.11
73860;BME280;62197;51.632;13.700;2022-07-22T08:20:05;100616.91;;;22.59;63.04
73860;BME280;62197;51.632;13.700;2022-07-22T08:22:30;100622.84;;;22.58;63.57
73860;BME280;62197;51.632;13.700;2022-07-22T08:24:56;100617.88;;;22.77;62.54
73860;BME280;62197;51.632;13.700;2022-07-22T08:27:21;100619.47;;;23.13;61.65
73860;BME280;62197;51.632;13.700;2022-07-22T08:29:46;100614.75;;;23.45;60.31
73860;BME280;62197;51.632;13.700;2022-07-22T08:32:12;100621.38;;;23.49;60.44
73860;BME280;62197;51.632;13.700;2022-07-22T08:34:38;100611.38;;;24.04;60.19
73860;BME280;62197;51.632;13.700;2022-07-22T08:37:03;100618.75;;;23.91;58.46
73860;BME280;62197;51.632;13.700;2022-07-22T08:39:29;100621.84;;;23.73;58.83
73860;BME280;62197;51.632;13.700;2022-07-22T08:41:56;100623.00;;;23.72;57.25
73860;BME280;62197;51.632;13.700;2022-07-22T08:44:22;100612.63;;;23.89;57.93
73860;BME280;62197;51.632;13.700;2022-07-22T08:46:47;100604.28;;;23.76;59.04
73860;BME280;62197;51.632;13.700;2022-07-22T08:49:14;100624.16;;;23.71;58.35
73860;BME280;62197;51.632;13.700;2022-07-22T08:51:40;100624.28;;;23.66;59.02
73860;BME280;62197;51.632;13.700;2022-07-22T08:54:06;100622.44;;;23.30;58.86
73860;BME280;62197;51.632;13.700;2022-07-22T08:56:31;100619.63;;;23.30;59.08
73860;BME280;62197;51.632;13.700;2022-07-22T08:58:56;100617.63;;;23.62;58.71
73860;BME280;62197;51.632;13.700;2022-07-22T09:01:22;100613.97;;;23.92;57.36
73860;BME280;62197;51.632;13.700;2022-07-22T09:03:51;100629.34;;;23.86;56.91
73860;BME280;62197;51.632;13.700;2022-07-22T09:06:20;100617.03;;;23.73;56.60
73860;BME280;62197;51.632;13.700;2022-07-22T09:08:55;100615.09;;;23.82;56.27
73860;BME280;62197;51.632;13.700;2022-07-22T09:11:23;100610.03;;;24.10;56.88
73860;BME280;62197;51.632;13.700;2022-07-22T09:13:48;100610.34;;;24.00;56.26
73860;BME280;62197;51.632;13.700;2022-07-22T09:16:14;100603.91;;;24.08;55.25
73860;BME280;62197;51.632;13.700;2022-07-22T09:18:51;100605.25;;;24.10;54.95
73860;BME280;62197;51.632;13.700;2022-07-22T09:21:17;100600.72;;;24.01;54.90
73860;BME280;62197;51.632;13.700;2022-07-22T09:23:42;100611.88;;;23.75;56.65
73860;BME280;62197;51.632;13.700;2022-07-22T09:26:08;100602.13;;;23.81;58.31
73860;BME280;62197;51.632;13.700;2022-07-22T09:28:34;100611.75;;;23.80;56.81
73860;BME280;62197;51.632;13.700;2022-07-22T09:30:59;100611.38;;;23.73;55.77
73860;BME280;62197;51.632;13.700;2022-07-22T09:33:25;100605.50;;;24.00;56.18
73860;BME280;62197;51.632;13.700;2022-07-22T09:35:52;100602.31;;;24.33;56.01
73860;BME280;62197;51.632;13.700;2022-07-22T09:38:20;100596.53;;;24.63;54.55
73860;BME280;62197;51.632;13.700;2022-07-22T09:40:51;100594.34;;;24.43;55.41
73860;BME280;62197;51.632;13.700;2022-07-22T09:43:19;100598.78;;;24.10;55.70
73860;BME280;62197;51.632;13.700;2022-07-22T09:45:54;100608.56;;;23.65;57.27
73860;BME280;62197;51.632;13.700;2022-07-22T09:48:22;100593.22;;;23.49;57.53
73860;BME280;62197;51.632;13.700;2022-07-22T09:50:49;100606.25;;;23.36;56.57
73860;BME280;62197;51.632;13.700;2022-07-22T09:53:17;100601.31;;;23.42;57.18
73860;BME280;62197;51.632;13.700;2022-07-22T09:55:43;100607.81;;;23.51;58.29
73860;BME280;62197;51.632;13.700;2022-07-22T09:58:08;100603.13;;;23.38;57.84
73860;BME280;62197;51.632;13.700;2022-07-22T10:00:36;100607.53;;;23.61;57.53
73860;BME280;62197;51.632;13.700;2022-07-22T10:03:03;100610.25;;;23.83;56.02
73860;BME280;62197;51.632;13.700;2022-07-22T10:05:39;100611.28;;;23.87;55.68
73860;BME280;62197;51.632;13.700;2022-07-22T10:08:06;100600.44;;;24.11;55.18
73860;BME280;62197;51.632;13.700;2022-07-22T10:10:32;100599.16;;;24.34;55.15
73860;BME280;62197;51.632;13.700;2022-07-22T10:12:59;100597.38;;;24.64;55.26
73860;BME280;62197;51.632;13.700;2022-07-22T10:15:26;100602.50;;;24.70;53.67
73860;BME280;62197;51.632;13.700;2022-07-22T10:17:54;100599.03;;;24.90;53.54
73860;BME280;62197;51.632;13.700;2022-07-22T10:20:22;100607.78;;;25.23;52.20
73860;BME280;62197;51.632;13.700;2022-07-22T10:22:50;100610.41;;;25.37;51.53
73860;BME280;62197;51.632;13.700;2022-07-22T10:25:16;100614.44;;;25.19;50.78
73860;BME280;62197;51.632;13.700;2022-07-22T10:27:56;100612.41;;;25.36;50.78
73860;BME280;62197;51.632;13.700;2022-07-22T10:30:28;100604.16;;;25.05;50.12
73860;BME280;62197;51.632;13.700;2022-07-22T10:33:11;100608.50;;;24.94;52.89
73860;BME280;62197;51.632;13.700;2022-07-22T10:38:10;100594.00;;;24.19;52.67
73860;BME280;62197;51.632;13.700;2022-07-22T10:43:21;100602.81;;;24.43;54.25
73860;BME280;62197;51.632;13.700;2022-07-22T10:45:52;100603.28;;;24.20;53.83
73860;BME280;62197;51.632;13.700;2022-07-22T10:51:13;100610.31;;;24.82;53.40
73860;BME280;62197;51.632;13.700;2022-07-22T10:56:27;100609.84;;;24.88;50.93
73860;BME280;62197;51.632;13.700;2022-07-22T10:58:57;100611.66;;;24.76;52.90
73860;BME280;62197;51.632;13.700;2022-07-22T11:01:29;100604.16;;;24.71;53.07
73860;BME280;62197;51.632;13.700;2022-07-22T11:03:55;100611.00;;;24.79;52.49
73860;BME280;62197;51.632;13.700;2022-07-22T11:06:23;100607.84;;;24.89;53.16
73860;BME280;62197;51.632;13.700;2022-07-22T11:08:51;100608.84;;;24.84;52.81
73860;BME280;62197;51.632;13.700;2022-07-22T11:11:17;100606.81;;;24.59;52.06
73860;BME280;62197;51.632;13.700;2022-07-22T11:13:43;100603.69;;;24.95;52.36
73860;BME280;62197;51.632;13.700;2022-07-22T11:18:51;100598.22;;;24.98;52.08
73860;BME280;62197;51.632;13.700;2022-07-22T11:21:18;100603.59;;;25.38;51.03
73860;BME280;62197;51.632;13.700;2022-07-22T11:23:44;100595.69;;;25.05;50.43
73860;BME280;62197;51.632;13.700;2022-07-22T11:26:14;100585.84;;;25.75;49.40
73860;BME280;62197;51.632;13.700;2022-07-22T11:28:40;100579.72;;;25.73;47.82
73860;BME280;62197;51.632;13.700;2022-07-22T11:31:12;100585.47;;;26.43;46.68
73860;BME280;62197;51.632;13.700;2022-07-22T11:33:38;100578.94;;;26.51;46.10
73860;BME280;62197;51.632;13.700;2022-07-22T11:36:08;100579.13;;;27.41;46.43
73860;BME280;62197;51.632;13.700;2022-07-22T11:38:48;100570.16;;;27.18;44.83
73860;BME280;62197;51.632;13.700;2022-07-22T11:41:16;100570.34;;;27.34;44.78
73860;BME280;62197;51.632;13.700;2022-07-22T11:43:45;100571.84;;;27.64;43.06
73860;BME280;62197;51.632;13.700;2022-07-22T11:46:12;100566.28;;;28.28;42.04
73860;BME280;62197;51.632;13.700;2022-07-22T11:48:38;100550.94;;;30.33;38.80
73860;BME280;62197;51.632;13.700;2022-07-22T11:51:05;100553.63;;;29.64;40.55
73860;BME280;62197;51.632;13.700;2022-07-22T11:53:31;100556.94;;;29.07;38.95
73860;BME280;62197;51.632;13.700;2022-07-22T11:55:58;100548.81;;;28.53;41.42
73860;BME280;62197;51.632;13.700;2022-07-22T11:58:36;100562.84;;;27.62;44.12
73860;BME280;62197;51.632;13.700;2022-07-22T12:01:04;100551.25;;;27.55;42.72
73860;BME280;62197;51.632;13.700;2022-07-22T12:03:30;100555.19;;;27.30;43.61
73860;BME280;62197;51.632;13.700;2022-07-22T12:05:55;100549.97;;;26.87;43.98
73860;BME280;62197;51.632;13.700;2022-07-22T12:08:21;100549.84;;;27.16;44.14
73860;BME280;62197;51.632;13.700;2022-07-22T12:10:46;100542.75;;;26.77;43.75
73860;BME280;62197;51.632;13.700;2022-07-22T12:13:12;100551.09;;;28.88;40.44
73860;BME280;62197;51.632;13.700;2022-07-22T12:15:38;100540.16;;;29.76;39.09
73860;BME280;62197;51.632;13.700;2022-07-22T12:18:17;100546.34;;;29.19;40.36
73860;BME280;62197;51.632;13.700;2022-07-22T12:20:45;100548.06;;;28.17;41.50
73860;BME280;62197;51.632;13.700;2022-07-22T12:23:11;100541.72;;;28.08;42.13
73860;BME280;62197;51.632;13.700;2022-07-22T12:25:57;100538.63;;;27.89;43.06
73860;BME280;62197;51.632;13.700;2022-07-22T12:28:22;100545.34;;;27.72;43.45
73860;BME280;62197;51.632;13.700;2022-07-22T12:30:49;100543.34;;;27.04;43.09
73860;BME280;62197;51.632;13.700;2022-07-22T12:33:16;100540.19;;;26.85;44.70
73860;BME280;62197;51.632;13.700;2022-07-22T12:35:42;100546.06;;;26.79;44.13
73860;BME280;62197;51.632;13.700;2022-07-22T12:38:08;100536.59;;;26.96;43.81
73860;BME280;62197;51.632;13.700;2022-07-22T12:40:34;100531.41;;;26.77;45.63
73860;BME280;62197;51.632;13.700;2022-07-22T12:43:05;100536.38;;;26.60;46.27
73860;BME280;62197;51.632;13.700;2022-07-22T12:45:33;100541.50;;;26.66;46.22
73860;BME280;62197;51.632;13.700;2022-07-22T12:50:43;100514.69;;;26.64;45.47